Aérodrome :
LOGIN :

S'inscrire | Disclaimer

   EN    FR    IT 

 










Légende :    VFR   VFR Marginal   IFR   IFR Intensif   IFR Très Intensif
Visi : 
Plafond : 
>= 8 km
>= 3000ft
5 à 8 km
1000 à 3000 ft
1500m à 5 km
500 à 1000 ft
800 à 1500m
200 à 500 ft
< 800m
< 200 ft
Symboles :   Orages  Brouillard  Fortes neiges  Fortes précipitations  Vent > 20 kt
SIGMETs :   Divers  Orages  Givrage  Turbulence  Onde Orograph.  Cendres Volcan.







- Altitude de l'aérodrome : 359 ft
- Code IATA : BVA
- Voir les cartes d'approche


LFOB - Beauvais

DERNIER METAR :
  • 132130Z AUTO 05005KT CAVOK M01/M04 Q1017 NOSIG

METARs EXPIRÉS :
  • 132100Z AUTO 07005KT CAVOK M00/M04 Q1017 NOSIG
  • 132030Z AUTO 08008KT CAVOK 00/M04 Q1017 NOSIG
  • 132000Z AUTO 07007KT CAVOK 00/M04 Q1017 NOSIG
  • 131930Z AUTO 07007KT CAVOK 00/M03 Q1016 NOSIG
  • 131900Z AUTO 06006KT CAVOK 00/M03 Q1016 NOSIG

TAF TAF LFOB
Valide du 13 à 18h jusqu'au 14 à 18h UTC


131700Z 1318/1418 08008KT CAVOK
BECMG 1403/1407 BKN008
TEMPO 1407/1410 3000 BR OVC003
BECMG 1412/1415 BKN012
BECMG 1415/1417 NSC
ATIS : +33 3 44 11 49 28
Pas de NOTAMs connus pour ce terrain.



MET'MAP, la Météo Aéronautique d'un coup d'oeil ! - Copyright ORBIFLY Décembre 2007 - Disclaimer

ORBIFLY MET'MAP TEAM :

Programmation & Développement : Alexandra Zaïnal
Conception & Développement : Baudouin d'Aumeries
Co-Programmation & Développement : Marc-Olivier Méhu
Soutien technique & logistique : Manuel Goepfert

Contact : metmap@orbifly.com




SOURCES & CREDITS :

   NOAA